createdAt,value
2019-03-31T00:00:07.730Z,1012.60
2019-03-31T00:01:08.589Z,1012.61
2019-03-31T00:02:07.523Z,1012.63
2019-03-31T00:03:07.419Z,1012.62
2019-03-31T00:04:07.316Z,1012.58
2019-03-31T00:05:07.216Z,1012.59
2019-03-31T00:06:07.111Z,1012.58
2019-03-31T00:07:07.007Z,1012.54
2019-03-31T00:08:06.905Z,1012.59
2019-03-31T00:09:06.802Z,1012.61
2019-03-31T00:10:06.698Z,1012.56
2019-03-31T00:11:06.599Z,1012.57
2019-03-31T00:12:06.496Z,1012.60
2019-03-31T00:13:06.413Z,1012.56
2019-03-31T00:14:06.286Z,1012.54
2019-03-31T00:15:06.183Z,1012.56
2019-03-31T00:16:06.079Z,1012.58
2019-03-31T00:17:05.980Z,1012.60
2019-03-31T00:18:05.876Z,1012.59
2019-03-31T00:19:05.768Z,1012.58
2019-03-31T00:20:05.668Z,1012.56
2019-03-31T00:21:05.565Z,1012.58
2019-03-31T00:22:05.459Z,1012.57
2019-03-31T00:23:05.357Z,1012.59
2019-03-31T00:24:05.256Z,1012.52
2019-03-31T00:25:05.153Z,1012.56
2019-03-31T00:26:05.050Z,1012.59
2019-03-31T00:27:04.947Z,1012.55
2019-03-31T00:28:04.850Z,1012.61
2019-03-31T00:29:04.741Z,1012.66
2019-03-31T00:30:04.638Z,1012.61
2019-03-31T00:31:04.532Z,1012.60
2019-03-31T00:32:04.462Z,1012.64
2019-03-31T00:33:04.380Z,1012.66
2019-03-31T00:34:04.224Z,1012.64
2019-03-31T00:35:04.119Z,1012.61
2019-03-31T00:36:04.018Z,1012.61
2019-03-31T00:37:03.914Z,1012.65
2019-03-31T00:38:03.812Z,1012.63
2019-03-31T00:39:03.708Z,1012.58
2019-03-31T00:40:03.604Z,1012.62
2019-03-31T00:41:03.503Z,1012.60
2019-03-31T00:42:03.413Z,1012.63
2019-03-31T00:43:03.295Z,1012.70
2019-03-31T00:44:03.190Z,1012.66
2019-03-31T00:45:03.088Z,1012.62
2019-03-31T00:46:02.984Z,1012.64
2019-03-31T00:47:02.886Z,1012.65
2019-03-31T00:48:02.777Z,1012.66
2019-03-31T00:49:02.681Z,1012.60
2019-03-31T00:50:02.569Z,1012.66
2019-03-31T00:51:02.467Z,1012.65
2019-03-31T00:52:02.427Z,1012.65
2019-03-31T00:53:02.259Z,1012.64
2019-03-31T00:54:02.157Z,1012.61
2019-03-31T00:55:02.054Z,1012.67
2019-03-31T00:56:01.953Z,1012.68
2019-03-31T00:57:01.849Z,1012.68
2019-03-31T00:58:01.749Z,1012.70
2019-03-31T00:59:01.641Z,1012.74
2019-03-31T01:00:01.543Z,1012.73
2019-03-31T01:01:01.436Z,1012.73
2019-03-31T01:02:01.331Z,1012.75
2019-03-31T01:03:01.227Z,1012.75
2019-03-31T01:04:01.122Z,1012.74
2019-03-31T01:05:01.024Z,1012.78
2019-03-31T01:06:00.916Z,1012.75
2019-03-31T01:07:00.812Z,1012.78
2019-03-31T01:08:00.713Z,1012.77
2019-03-31T01:09:00.607Z,1012.79
2019-03-31T01:10:00.505Z,1012.80
2019-03-31T01:11:00.418Z,1012.79
2019-03-31T01:12:00.351Z,1012.79
2019-03-31T01:13:00.193Z,1012.82
2019-03-31T01:14:00.087Z,1012.83
2019-03-31T01:14:59.987Z,1012.84
2019-03-31T01:15:59.883Z,1012.89
2019-03-31T01:17:00.079Z,1012.86
2019-03-31T01:17:59.673Z,1012.81
2019-03-31T01:18:59.572Z,1012.85
2019-03-31T01:19:59.468Z,1012.85
2019-03-31T01:20:59.366Z,1012.89
2019-03-31T01:21:59.261Z,1012.88
2019-03-31T01:22:59.159Z,1012.86
2019-03-31T01:23:59.057Z,1012.82
2019-03-31T01:24:58.952Z,1012.86
2019-03-31T01:26:00.530Z,1012.87
2019-03-31T01:26:58.751Z,1012.90
2019-03-31T01:27:58.640Z,1012.88
2019-03-31T01:28:58.541Z,1012.89
2019-03-31T01:29:58.434Z,1012.89
2019-03-31T01:30:58.385Z,1012.89
2019-03-31T01:31:58.241Z,1012.91
2019-03-31T01:32:58.124Z,1012.89
2019-03-31T01:33:58.020Z,1012.90
2019-03-31T01:34:57.917Z,1012.95
2019-03-31T01:35:57.814Z,1012.95
2019-03-31T01:36:57.710Z,1012.96
2019-03-31T01:37:57.606Z,1012.96
2019-03-31T01:38:57.504Z,1012.97
2019-03-31T01:39:57.399Z,1013.00
2019-03-31T01:40:57.297Z,1013.01
2019-03-31T01:41:57.194Z,1012.96
2019-03-31T01:42:57.091Z,1013.00
2019-03-31T01:43:56.984Z,1013.00
2019-03-31T01:44:56.885Z,1013.02
2019-03-31T01:45:56.780Z,1013.03
2019-03-31T01:46:56.676Z,1013.00
2019-03-31T01:47:56.574Z,1012.99
2019-03-31T01:48:56.471Z,1012.96
2019-03-31T01:49:56.378Z,1013.01
2019-03-31T01:50:56.294Z,1012.98
2019-03-31T01:51:56.160Z,1013.02
2019-03-31T01:52:56.057Z,1013.00
2019-03-31T01:53:55.954Z,1013.01
2019-03-31T01:54:55.853Z,1013.08
2019-03-31T01:55:55.750Z,1013.06
2019-03-31T01:56:55.645Z,1013.08
2019-03-31T01:57:55.543Z,1013.08
2019-03-31T01:58:55.437Z,1013.09
2019-03-31T01:59:55.338Z,1013.05
2019-03-31T02:00:55.229Z,1013.09
2019-03-31T02:02:04.108Z,1013.07
2019-03-31T02:02:55.024Z,1013.08
2019-03-31T02:03:54.929Z,1013.09
2019-03-31T02:04:54.816Z,1013.12
2019-03-31T02:05:54.711Z,1013.14
2019-03-31T02:06:54.610Z,1013.11
2019-03-31T02:07:54.506Z,1013.14
2019-03-31T02:08:54.402Z,1013.09
2019-03-31T02:09:54.338Z,1013.12
2019-03-31T02:10:54.270Z,1013.09
2019-03-31T02:11:54.095Z,1013.12
2019-03-31T02:12:53.994Z,1013.13
2019-03-31T02:13:53.885Z,1013.10
2019-03-31T02:14:53.784Z,1013.16
2019-03-31T02:15:53.680Z,1013.13
2019-03-31T02:16:53.574Z,1013.13
2019-03-31T02:17:53.475Z,1013.11
2019-03-31T02:18:53.369Z,1013.11
2019-03-31T02:19:53.268Z,1013.18
2019-03-31T02:20:53.163Z,1013.16
2019-03-31T02:21:53.059Z,1013.14
2019-03-31T02:22:52.956Z,1013.12
2019-03-31T02:23:52.853Z,1013.08
2019-03-31T02:24:52.757Z,1013.05
2019-03-31T02:25:52.646Z,1013.09
2019-03-31T02:26:52.542Z,1013.08
2019-03-31T02:27:52.439Z,1013.08
2019-03-31T02:28:52.337Z,1013.07
2019-03-31T02:29:52.258Z,1013.09
2019-03-31T02:30:52.133Z,1013.07
2019-03-31T02:31:52.028Z,1013.07
2019-03-31T02:32:51.924Z,1013.09
2019-03-31T02:33:51.830Z,1013.05
2019-03-31T02:34:51.720Z,1013.03
2019-03-31T02:35:51.622Z,1013.08
2019-03-31T02:36:51.510Z,1013.05
2019-03-31T02:37:51.406Z,1013.09
2019-03-31T02:38:51.301Z,1013.08
2019-03-31T02:39:51.199Z,1013.09
2019-03-31T02:40:51.095Z,1013.10
2019-03-31T02:41:50.992Z,1013.07
2019-03-31T02:42:50.890Z,1013.08
2019-03-31T02:43:50.791Z,1013.14
2019-03-31T02:44:50.686Z,1013.12
2019-03-31T02:45:50.577Z,1013.12
2019-03-31T02:46:50.474Z,1013.14
2019-03-31T02:47:50.371Z,1013.05
2019-03-31T02:48:50.296Z,1013.12
2019-03-31T02:49:50.227Z,1013.10
2019-03-31T02:50:50.062Z,1013.09
2019-03-31T02:51:49.966Z,1013.14
2019-03-31T02:52:49.856Z,1013.13
2019-03-31T02:53:49.753Z,1013.13
2019-03-31T02:54:49.647Z,1013.13
2019-03-31T02:55:49.547Z,1013.12
2019-03-31T02:56:49.442Z,1013.09
2019-03-31T02:57:49.337Z,1013.10
2019-03-31T02:58:49.241Z,1013.14
2019-03-31T02:59:49.130Z,1013.18
2019-03-31T03:00:49.032Z,1013.17
2019-03-31T03:01:49.222Z,1013.21
2019-03-31T03:02:48.820Z,1013.23
2019-03-31T03:03:48.715Z,1013.22
2019-03-31T03:04:48.614Z,1013.25
2019-03-31T03:05:48.511Z,1013.25
2019-03-31T03:06:48.408Z,1013.24
2019-03-31T03:07:48.301Z,1013.28
2019-03-31T03:08:48.277Z,1013.27
2019-03-31T03:09:48.096Z,1013.27
2019-03-31T03:10:47.991Z,1013.30
2019-03-31T03:11:47.886Z,1013.30
2019-03-31T03:12:47.782Z,1013.29
2019-03-31T03:13:47.680Z,1013.31
2019-03-31T03:14:47.585Z,1013.31
2019-03-31T03:15:47.474Z,1013.32
2019-03-31T03:16:47.374Z,1013.34
2019-03-31T03:17:47.270Z,1013.31
2019-03-31T03:18:47.163Z,1013.32
2019-03-31T03:19:47.064Z,1013.33
2019-03-31T03:20:46.961Z,1013.33
2019-03-31T03:21:46.856Z,1013.35
2019-03-31T03:22:46.749Z,1013.37
2019-03-31T03:23:46.645Z,1013.37
2019-03-31T03:24:46.541Z,1013.38
2019-03-31T03:25:55.682Z,1013.41
2019-03-31T03:26:46.340Z,1013.37
2019-03-31T03:27:46.250Z,1013.43
2019-03-31T03:28:46.187Z,1013.42
2019-03-31T03:29:46.022Z,1013.43
2019-03-31T03:30:46.154Z,1013.42
2019-03-31T03:31:45.856Z,1013.44
2019-03-31T03:33:11.894Z,1013.41
2019-03-31T03:33:45.609Z,1013.48
2019-03-31T03:34:45.501Z,1013.42
2019-03-31T03:35:45.409Z,1013.41
2019-03-31T03:36:45.295Z,1013.49
2019-03-31T03:37:45.190Z,1013.47
2019-03-31T03:38:45.093Z,1013.48
2019-03-31T03:39:44.984Z,1013.49
2019-03-31T03:40:44.878Z,1013.46
2019-03-31T03:41:44.777Z,1013.45
2019-03-31T03:42:44.671Z,1013.43
2019-03-31T03:43:55.251Z,1013.42
2019-03-31T03:44:44.463Z,1013.40
2019-03-31T03:45:44.360Z,1013.45
2019-03-31T03:46:44.256Z,1013.42
2019-03-31T03:47:44.237Z,1013.48
2019-03-31T03:48:44.047Z,1013.49
2019-03-31T03:49:43.949Z,1013.50
2019-03-31T03:50:43.839Z,1013.49
2019-03-31T03:51:43.735Z,1013.53
2019-03-31T03:52:43.638Z,1013.59
2019-03-31T03:53:43.526Z,1013.57
2019-03-31T03:54:43.423Z,1013.55
2019-03-31T03:55:43.340Z,1013.56
2019-03-31T03:56:43.214Z,1013.51
2019-03-31T03:57:43.111Z,1013.59
2019-03-31T03:58:43.006Z,1013.60
2019-03-31T03:59:42.906Z,1013.62
2019-03-31T04:00:42.802Z,1013.64
2019-03-31T04:01:42.695Z,1013.66
2019-03-31T04:02:42.591Z,1013.64
2019-03-31T04:03:42.486Z,1013.70
2019-03-31T04:04:42.391Z,1013.67
2019-03-31T04:05:42.280Z,1013.68
2019-03-31T04:06:42.220Z,1013.65
2019-03-31T04:07:42.140Z,1013.70
2019-03-31T04:08:41.982Z,1013.66
2019-03-31T04:09:41.864Z,1013.67
2019-03-31T04:10:41.758Z,1013.65
2019-03-31T04:11:41.656Z,1013.70
2019-03-31T04:12:41.553Z,1013.70
2019-03-31T04:13:41.448Z,1013.72
2019-03-31T04:14:41.343Z,1013.71
2019-03-31T04:15:41.242Z,1013.77
2019-03-31T04:16:41.142Z,1013.76
2019-03-31T04:17:41.028Z,1013.79
2019-03-31T04:18:40.932Z,1013.74
2019-03-31T04:19:40.830Z,1013.81
2019-03-31T04:20:40.722Z,1013.85
2019-03-31T04:21:40.918Z,1013.81
2019-03-31T04:22:40.510Z,1013.84
2019-03-31T04:23:40.406Z,1013.86
2019-03-31T04:24:40.301Z,1013.87
2019-03-31T04:25:40.232Z,1013.86
2019-03-31T04:26:40.181Z,1013.90
2019-03-31T04:27:39.989Z,1013.87
2019-03-31T04:28:39.982Z,1013.83
2019-03-31T04:29:39.784Z,1013.86
2019-03-31T04:30:39.677Z,1013.84
2019-03-31T04:31:39.571Z,1013.82
2019-03-31T04:32:39.473Z,1013.87
2019-03-31T04:33:50.684Z,1013.89
2019-03-31T04:34:39.256Z,1013.91
2019-03-31T04:35:39.153Z,1013.85
2019-03-31T04:36:39.046Z,1013.89
2019-03-31T04:37:38.947Z,1013.91
2019-03-31T04:38:38.844Z,1013.95
2019-03-31T04:39:38.735Z,1013.93
2019-03-31T04:40:38.636Z,1013.99
2019-03-31T04:41:38.524Z,1013.98
2019-03-31T04:42:38.424Z,1013.99
2019-03-31T04:43:38.316Z,1013.95
2019-03-31T04:44:38.214Z,1013.99
2019-03-31T04:45:38.154Z,1014.06
2019-03-31T04:46:38.092Z,1014.09
2019-03-31T04:47:37.902Z,1014.10
2019-03-31T04:48:37.802Z,1014.12
2019-03-31T04:49:37.695Z,1014.13
2019-03-31T04:50:37.587Z,1014.14
2019-03-31T04:51:37.486Z,1014.18
2019-03-31T04:52:37.380Z,1014.19
2019-03-31T04:53:37.275Z,1014.25
2019-03-31T04:54:37.171Z,1014.25
2019-03-31T04:55:37.064Z,1014.25
2019-03-31T04:56:36.959Z,1014.21
2019-03-31T04:57:36.856Z,1014.24
2019-03-31T04:58:36.753Z,1014.28
2019-03-31T04:59:36.650Z,1014.30
2019-03-31T05:00:36.543Z,1014.28
2019-03-31T05:01:36.439Z,1014.31
2019-03-31T05:02:36.335Z,1014.35
2019-03-31T05:03:36.230Z,1014.37
2019-03-31T05:04:36.126Z,1014.36
2019-03-31T05:05:36.075Z,1014.35
2019-03-31T05:06:35.917Z,1014.37
2019-03-31T05:07:35.813Z,1014.41
2019-03-31T05:08:35.706Z,1014.39
2019-03-31T05:09:35.603Z,1014.39
2019-03-31T05:10:35.499Z,1014.44
2019-03-31T05:11:35.394Z,1014.46
2019-03-31T05:12:35.292Z,1014.46
2019-03-31T05:13:35.186Z,1014.51
2019-03-31T05:14:35.083Z,1014.53
2019-03-31T05:15:34.982Z,1014.56
2019-03-31T05:16:34.875Z,1014.51
2019-03-31T05:17:35.971Z,1014.60
2019-03-31T05:18:34.666Z,1014.61
2019-03-31T05:19:34.561Z,1014.69
2019-03-31T05:20:34.460Z,1014.68
2019-03-31T05:21:34.357Z,1014.71
2019-03-31T05:22:34.251Z,1014.73
2019-03-31T05:23:34.148Z,1014.79
2019-03-31T05:24:34.102Z,1014.84
2019-03-31T05:25:33.960Z,1014.88
2019-03-31T05:26:33.834Z,1014.89
2019-03-31T05:27:33.734Z,1014.90
2019-03-31T05:28:33.718Z,1014.90
2019-03-31T05:29:33.525Z,1014.94
2019-03-31T05:30:33.419Z,1015.02
2019-03-31T05:31:33.317Z,1014.98
2019-03-31T05:32:33.215Z,1015.01
2019-03-31T05:33:33.109Z,1015.08
2019-03-31T05:34:33.005Z,1015.04
2019-03-31T05:35:32.902Z,1015.09
2019-03-31T05:36:32.800Z,1015.13
2019-03-31T05:37:32.694Z,1015.14
2019-03-31T05:38:32.593Z,1015.16
2019-03-31T05:39:32.489Z,1015.21
2019-03-31T05:40:32.385Z,1015.21
2019-03-31T05:41:32.279Z,1015.24
2019-03-31T05:42:32.180Z,1015.28
2019-03-31T05:43:32.093Z,1015.31
2019-03-31T05:44:32.005Z,1015.35
2019-03-31T05:45:31.868Z,1015.36
2019-03-31T05:46:31.765Z,1015.37
2019-03-31T05:47:31.665Z,1015.37
2019-03-31T05:48:31.559Z,1015.40
2019-03-31T05:49:31.454Z,1015.40
2019-03-31T05:50:31.352Z,1015.44
2019-03-31T05:51:31.250Z,1015.40
2019-03-31T05:52:31.146Z,1015.45
2019-03-31T05:53:31.051Z,1015.41
2019-03-31T05:54:30.941Z,1015.49
2019-03-31T05:55:30.837Z,1015.47
2019-03-31T05:56:30.733Z,1015.56
2019-03-31T05:57:30.629Z,1015.48
2019-03-31T05:58:30.528Z,1015.52
2019-03-31T05:59:30.423Z,1015.51
2019-03-31T06:00:30.320Z,1015.58
2019-03-31T06:01:30.218Z,1015.54
2019-03-31T06:02:30.115Z,1015.56
2019-03-31T06:03:30.054Z,1015.55
2019-03-31T06:04:33.349Z,1015.60
2019-03-31T06:05:29.803Z,1015.60
2019-03-31T06:06:29.702Z,1015.63
2019-03-31T06:07:29.602Z,1015.62
2019-03-31T06:08:29.495Z,1015.61
2019-03-31T06:09:29.391Z,1015.63
2019-03-31T06:10:29.289Z,1015.70
2019-03-31T06:11:29.184Z,1015.76
2019-03-31T06:12:29.081Z,1015.70
2019-03-31T06:13:28.977Z,1015.64
2019-03-31T06:14:28.880Z,1015.71
2019-03-31T06:15:28.774Z,1015.70
2019-03-31T06:16:28.670Z,1015.76
2019-03-31T06:17:28.563Z,1015.78
2019-03-31T06:18:28.463Z,1015.77
2019-03-31T06:19:28.359Z,1015.79
2019-03-31T06:20:28.256Z,1015.75
2019-03-31T06:21:29.272Z,1015.81
2019-03-31T06:22:28.068Z,1015.82
2019-03-31T06:23:27.974Z,1015.82
2019-03-31T06:24:27.844Z,1015.81
2019-03-31T06:25:27.743Z,1015.80
2019-03-31T06:26:27.635Z,1015.87
2019-03-31T06:27:27.532Z,1015.87
2019-03-31T06:28:27.430Z,1015.90
2019-03-31T06:29:27.324Z,1015.95
2019-03-31T06:30:27.221Z,1015.91
2019-03-31T06:31:27.118Z,1015.99
2019-03-31T06:32:27.015Z,1015.94
2019-03-31T06:33:26.911Z,1015.99
2019-03-31T06:34:26.810Z,1016.00
2019-03-31T06:35:26.705Z,1016.02
2019-03-31T06:36:26.602Z,1016.05
2019-03-31T06:37:26.498Z,1016.10
2019-03-31T06:38:26.395Z,1016.15
2019-03-31T06:39:26.292Z,1016.16
2019-03-31T06:40:26.188Z,1016.09
2019-03-31T06:41:26.082Z,1016.10
2019-03-31T06:42:26.015Z,1016.09
2019-03-31T06:43:25.935Z,1016.09
2019-03-31T06:44:25.778Z,1016.10
2019-03-31T06:45:25.674Z,1016.12
2019-03-31T06:46:25.571Z,1016.14
2019-03-31T06:47:25.471Z,1016.07
2019-03-31T06:48:25.368Z,1016.05
2019-03-31T06:49:25.265Z,1016.10
2019-03-31T06:50:25.164Z,1016.06
2019-03-31T06:51:25.063Z,1016.09
2019-03-31T06:52:24.961Z,1016.15
2019-03-31T06:53:24.856Z,1016.13
2019-03-31T06:54:24.760Z,1016.09
2019-03-31T06:55:24.658Z,1016.13
2019-03-31T06:56:24.554Z,1016.15
2019-03-31T06:57:24.456Z,1016.17
2019-03-31T06:58:24.363Z,1016.18
2019-03-31T06:59:24.252Z,1016.21
2019-03-31T07:00:24.150Z,1016.15
2019-03-31T07:01:24.050Z,1016.23
2019-03-31T07:02:23.980Z,1016.19
2019-03-31T07:03:23.907Z,1016.16
2019-03-31T07:04:23.747Z,1016.17
2019-03-31T07:05:23.646Z,1016.22
2019-03-31T07:06:23.545Z,1016.15
2019-03-31T07:07:23.961Z,1016.27
2019-03-31T07:08:23.350Z,1016.23
2019-03-31T07:09:23.245Z,1016.20
2019-03-31T07:10:23.146Z,1016.21
2019-03-31T07:11:23.046Z,1016.17
2019-03-31T07:12:22.945Z,1016.20
2019-03-31T07:13:22.845Z,1016.23
2019-03-31T07:14:22.745Z,1016.22
2019-03-31T07:15:22.645Z,1016.26
2019-03-31T07:16:22.545Z,1016.29
2019-03-31T07:17:22.453Z,1016.26
2019-03-31T07:18:22.346Z,1016.29
2019-03-31T07:19:22.246Z,1016.34
2019-03-31T07:20:22.144Z,1016.28
2019-03-31T07:21:22.044Z,1016.31
2019-03-31T07:22:24.318Z,1016.30
2019-03-31T07:23:21.891Z,1016.34
2019-03-31T07:24:21.743Z,1016.35
2019-03-31T07:25:21.643Z,1016.35
2019-03-31T07:26:21.540Z,1016.35
2019-03-31T07:27:21.440Z,1016.42
2019-03-31T07:28:21.340Z,1016.40
2019-03-31T07:29:21.237Z,1016.41
2019-03-31T07:30:21.138Z,1016.42
2019-03-31T07:31:21.036Z,1016.42
2019-03-31T07:32:20.936Z,1016.47
2019-03-31T07:33:20.836Z,1016.51
2019-03-31T07:34:20.729Z,1016.50
2019-03-31T07:35:20.632Z,1016.54
2019-03-31T07:36:20.538Z,1016.54
2019-03-31T07:37:20.429Z,1016.56
2019-03-31T07:38:20.569Z,1016.55
2019-03-31T07:39:20.382Z,1016.60
2019-03-31T07:40:20.244Z,1016.63
2019-03-31T07:41:20.161Z,1016.60
2019-03-31T07:42:19.957Z,1016.61
2019-03-31T07:43:20.012Z,1016.66
2019-03-31T07:44:19.719Z,1016.68
2019-03-31T07:45:19.617Z,1016.64
2019-03-31T07:46:19.517Z,1016.66
2019-03-31T07:47:19.418Z,1016.72
2019-03-31T07:48:19.314Z,1016.69
2019-03-31T07:49:19.216Z,1016.73
2019-03-31T07:50:19.112Z,1016.77
2019-03-31T07:51:19.009Z,1016.80
2019-03-31T07:52:18.987Z,1016.80
2019-03-31T07:53:18.812Z,1016.81
2019-03-31T07:54:18.710Z,1016.79
2019-03-31T07:55:18.609Z,1016.79
2019-03-31T07:56:18.510Z,1016.79
2019-03-31T07:57:18.403Z,1016.84
2019-03-31T07:58:18.311Z,1016.83
2019-03-31T07:59:18.242Z,1016.83
2019-03-31T08:00:18.102Z,1016.83
2019-03-31T08:01:18.001Z,1016.81
2019-03-31T08:02:17.909Z,1016.85
2019-03-31T08:03:17.853Z,1016.87
2019-03-31T08:04:17.697Z,1016.82
2019-03-31T08:05:17.594Z,1016.87
2019-03-31T08:06:17.499Z,1016.87
2019-03-31T08:07:17.393Z,1016.90
2019-03-31T08:08:17.291Z,1016.91
2019-03-31T08:09:17.191Z,1016.95
2019-03-31T08:10:17.089Z,1016.96
2019-03-31T08:11:17.245Z,1016.99
2019-03-31T08:12:16.889Z,1017.00
2019-03-31T08:13:16.785Z,1016.95
2019-03-31T08:14:16.690Z,1017.01
2019-03-31T08:15:16.581Z,1017.00
2019-03-31T08:16:16.485Z,1017.03
2019-03-31T08:17:16.380Z,1017.06
2019-03-31T08:18:16.278Z,1017.04
2019-03-31T08:19:16.180Z,1017.03
2019-03-31T08:20:16.080Z,1017.02
2019-03-31T08:21:15.976Z,1017.02
2019-03-31T08:22:15.905Z,1017.04
2019-03-31T08:23:15.844Z,1017.09
2019-03-31T08:24:15.675Z,1017.09
2019-03-31T08:25:15.572Z,1017.11
2019-03-31T08:26:15.470Z,1017.14
2019-03-31T08:27:15.369Z,1017.19
2019-03-31T08:28:15.269Z,1017.18
2019-03-31T08:29:15.166Z,1017.25
2019-03-31T08:30:15.066Z,1017.26
2019-03-31T08:31:14.965Z,1017.27
2019-03-31T08:32:14.864Z,1017.26
2019-03-31T08:33:14.764Z,1017.29
2019-03-31T08:34:14.661Z,1017.31
2019-03-31T08:35:14.560Z,1017.31
2019-03-31T08:36:14.458Z,1017.29
2019-03-31T08:37:14.358Z,1017.31
2019-03-31T08:38:14.257Z,1017.33
2019-03-31T08:39:14.156Z,1017.28
2019-03-31T08:40:14.053Z,1017.29
2019-03-31T08:41:13.953Z,1017.31
2019-03-31T08:42:13.867Z,1017.31
2019-03-31T08:43:13.802Z,1017.36
2019-03-31T08:44:13.650Z,1017.36
2019-03-31T08:45:13.550Z,1017.35
2019-03-31T08:46:13.447Z,1017.37
2019-03-31T08:47:13.343Z,1017.36
2019-03-31T08:48:13.249Z,1017.42
2019-03-31T08:49:13.146Z,1017.38
2019-03-31T08:50:13.044Z,1017.43
2019-03-31T08:51:12.945Z,1017.41
2019-03-31T08:52:12.845Z,1017.45
2019-03-31T08:53:12.743Z,1017.48
2019-03-31T08:54:12.642Z,1017.46
2019-03-31T08:55:12.539Z,1017.48
2019-03-31T08:56:12.444Z,1017.50
2019-03-31T08:57:12.340Z,1017.55
2019-03-31T08:58:12.242Z,1017.55
2019-03-31T08:59:12.142Z,1017.57
2019-03-31T09:00:12.040Z,1017.56
2019-03-31T09:01:11.939Z,1017.62
2019-03-31T09:02:11.839Z,1017.60
2019-03-31T09:03:11.786Z,1017.63
2019-03-31T09:04:11.638Z,1017.62
2019-03-31T09:05:11.537Z,1017.61
2019-03-31T09:06:11.438Z,1017.63
2019-03-31T09:07:11.339Z,1017.64
2019-03-31T09:08:11.240Z,1017.61
2019-03-31T09:09:11.136Z,1017.61
2019-03-31T09:10:11.037Z,1017.58
2019-03-31T09:11:10.937Z,1017.59
2019-03-31T09:12:10.835Z,1017.60
2019-03-31T09:13:10.735Z,1017.56
2019-03-31T09:14:10.636Z,1017.59
2019-03-31T09:15:10.535Z,1017.59
2019-03-31T09:16:10.435Z,1017.60
2019-03-31T09:17:10.334Z,1017.57
2019-03-31T09:18:10.235Z,1017.59
2019-03-31T09:19:10.133Z,1017.60
2019-03-31T09:20:10.035Z,1017.62
2019-03-31T09:21:09.931Z,1017.67
2019-03-31T09:22:09.829Z,1017.62
2019-03-31T09:23:09.763Z,1017.61
2019-03-31T09:24:09.633Z,1017.63
2019-03-31T09:25:09.531Z,1017.63
2019-03-31T09:26:09.430Z,1017.63
2019-03-31T09:27:09.330Z,1017.65
2019-03-31T09:28:09.234Z,1017.71
2019-03-31T09:29:09.127Z,1017.69
2019-03-31T09:30:09.027Z,1017.73
2019-03-31T09:31:08.927Z,1017.73
2019-03-31T09:32:08.827Z,1017.79
2019-03-31T09:33:08.725Z,1017.79
2019-03-31T09:34:08.624Z,1017.82
2019-03-31T09:35:08.525Z,1017.83
2019-03-31T09:36:16.126Z,1017.84
2019-03-31T09:37:08.322Z,1017.85
2019-03-31T09:38:08.222Z,1017.88
2019-03-31T09:39:08.123Z,1017.89
2019-03-31T09:40:08.019Z,1017.89
2019-03-31T09:41:08.215Z,1017.94
2019-03-31T09:42:07.815Z,1017.91
2019-03-31T09:43:07.794Z,1017.90
2019-03-31T09:44:07.614Z,1017.93
2019-03-31T09:45:07.511Z,1017.90
2019-03-31T09:46:07.410Z,1017.89
2019-03-31T09:47:07.312Z,1017.89
2019-03-31T09:48:07.211Z,1017.94
2019-03-31T09:49:07.106Z,1017.95
2019-03-31T09:50:07.005Z,1017.92
2019-03-31T09:51:06.901Z,1017.98
2019-03-31T09:52:06.801Z,1017.94
2019-03-31T09:53:06.701Z,1017.96
2019-03-31T09:54:06.601Z,1017.98
2019-03-31T09:55:06.498Z,1018.02
2019-03-31T09:56:06.399Z,1018.00
2019-03-31T09:57:06.296Z,1017.96
2019-03-31T09:58:06.195Z,1017.96
2019-03-31T09:59:06.095Z,1017.97
2019-03-31T10:00:05.996Z,1018.00
2019-03-31T10:01:08.000Z,1018.00
2019-03-31T10:02:05.800Z,1018.02
2019-03-31T10:03:05.730Z,1018.05
2019-03-31T10:04:05.589Z,1018.02
2019-03-31T10:05:05.489Z,1017.99
2019-03-31T10:06:11.054Z,1018.02
2019-03-31T10:07:05.289Z,1018.01
2019-03-31T10:08:05.189Z,1017.96
2019-03-31T10:09:05.089Z,1017.98
2019-03-31T10:10:04.987Z,1017.96
2019-03-31T10:11:04.889Z,1017.98
2019-03-31T10:12:04.788Z,1017.97
2019-03-31T10:13:04.688Z,1017.95
2019-03-31T10:14:04.589Z,1017.98
2019-03-31T10:15:04.488Z,1017.92
2019-03-31T10:16:04.390Z,1017.97
2019-03-31T10:17:04.289Z,1017.97
2019-03-31T10:18:04.192Z,1018.00
2019-03-31T10:19:04.091Z,1017.95
2019-03-31T10:20:03.989Z,1018.05
2019-03-31T10:21:03.889Z,1018.01
2019-03-31T10:22:03.789Z,1018.03
2019-03-31T10:23:03.739Z,1018.06
2019-03-31T10:24:03.613Z,1018.03
2019-03-31T10:25:03.495Z,1018.05
2019-03-31T10:26:03.389Z,1018.05
2019-03-31T10:27:03.295Z,1018.04
2019-03-31T10:28:03.193Z,1018.04
2019-03-31T10:29:03.094Z,1018.06
2019-03-31T10:30:02.990Z,1018.03
2019-03-31T10:31:02.892Z,1018.04
2019-03-31T10:32:02.791Z,1018.03
2019-03-31T10:33:02.771Z,1018.00
2019-03-31T10:34:02.593Z,1017.99
2019-03-31T10:35:02.493Z,1018.01
2019-03-31T10:36:02.393Z,1017.98
2019-03-31T10:37:02.293Z,1018.00
2019-03-31T10:38:02.196Z,1018.04
2019-03-31T10:39:02.093Z,1018.02
2019-03-31T10:40:01.995Z,1018.00
2019-03-31T10:41:01.895Z,1018.01
2019-03-31T10:42:01.796Z,1018.03
2019-03-31T10:43:01.724Z,1018.00
2019-03-31T10:44:01.643Z,1018.05
2019-03-31T10:45:01.500Z,1018.07
2019-03-31T10:46:01.397Z,1018.06
2019-03-31T10:47:01.302Z,1018.07
2019-03-31T10:48:01.200Z,1018.09
2019-03-31T10:49:01.101Z,1018.07
2019-03-31T10:50:01.000Z,1018.07
2019-03-31T10:51:00.900Z,1018.05
2019-03-31T10:52:00.802Z,1018.03
2019-03-31T10:53:00.701Z,1018.03
2019-03-31T10:54:00.601Z,1018.04
2019-03-31T10:55:00.503Z,1018.10
2019-03-31T10:56:00.404Z,1018.16
2019-03-31T10:57:00.316Z,1018.06
2019-03-31T10:58:00.205Z,1018.01
2019-03-31T10:59:00.106Z,1018.07
2019-03-31T11:00:00.005Z,1018.01
2019-03-31T11:01:00.204Z,1018.00
2019-03-31T11:01:59.806Z,1017.99
2019-03-31T11:02:59.706Z,1017.98
2019-03-31T11:03:59.631Z,1017.97
2019-03-31T11:04:59.509Z,1017.99
2019-03-31T11:05:59.407Z,1018.02
2019-03-31T11:07:03.101Z,1018.01
2019-03-31T11:07:59.206Z,1018.02
2019-03-31T11:08:59.105Z,1018.07
2019-03-31T11:09:59.005Z,1018.09
2019-03-31T11:10:58.905Z,1018.07
2019-03-31T11:11:58.805Z,1018.07
2019-03-31T11:12:58.704Z,1018.01
2019-03-31T11:13:58.607Z,1018.09
2019-03-31T11:14:58.505Z,1018.04
2019-03-31T11:15:58.405Z,1018.08
2019-03-31T11:16:58.303Z,1018.07
2019-03-31T11:17:58.205Z,1018.07
2019-03-31T11:18:58.105Z,1018.06
2019-03-31T11:20:00.579Z,1018.05
2019-03-31T11:20:57.904Z,1018.03
2019-03-31T11:21:57.804Z,1018.03
2019-03-31T11:22:57.705Z,1018.06
2019-03-31T11:23:57.663Z,1018.03
2019-03-31T11:24:57.507Z,1018.04
2019-03-31T11:25:57.405Z,1018.10
2019-03-31T11:26:57.307Z,1018.06
2019-03-31T11:27:57.208Z,1018.02
2019-03-31T11:28:57.110Z,1018.00
2019-03-31T11:29:57.009Z,1018.07
2019-03-31T11:30:56.911Z,1018.07
2019-03-31T11:31:56.810Z,1018.05
2019-03-31T11:32:56.710Z,1017.99
2019-03-31T11:33:56.614Z,1018.00
2019-03-31T11:34:56.513Z,1017.97
2019-03-31T11:35:56.414Z,1018.00
2019-03-31T11:36:56.316Z,1018.02
2019-03-31T11:37:56.230Z,1018.04
2019-03-31T11:38:56.117Z,1018.05
2019-03-31T11:39:56.018Z,1018.05
2019-03-31T11:40:55.919Z,1018.03
2019-03-31T11:41:55.820Z,1018.07
2019-03-31T11:42:55.722Z,1018.02
2019-03-31T11:43:55.651Z,1018.03
2019-03-31T11:44:55.576Z,1018.07
2019-03-31T11:45:55.424Z,1018.17
2019-03-31T11:46:55.323Z,1018.04
2019-03-31T11:47:55.225Z,1018.12
2019-03-31T11:48:55.127Z,1018.06
2019-03-31T11:49:55.026Z,1018.06
2019-03-31T11:50:54.928Z,1018.07
2019-03-31T11:51:54.829Z,1018.07
2019-03-31T11:52:54.729Z,1018.10
2019-03-31T11:53:54.630Z,1018.12
2019-03-31T11:54:54.531Z,1018.12
2019-03-31T11:55:54.432Z,1018.11
2019-03-31T11:56:54.333Z,1018.16
2019-03-31T11:57:54.234Z,1018.15
2019-03-31T11:58:54.134Z,1018.15
2019-03-31T11:59:54.037Z,1018.09
2019-03-31T12:00:53.933Z,1018.14
2019-03-31T12:01:53.837Z,1018.15
2019-03-31T12:02:53.739Z,1018.13
2019-03-31T12:03:53.639Z,1018.15